sensor_id;sensor_type;location;lat;lon;timestamp;pressure;altitude;pressure_sealevel;temperature;humidity
19023;BME280;35226;48.606;8.858;2023-05-24T00:01:11;96555.34;;;12.37;100.00
19023;BME280;35226;48.606;8.858;2023-05-24T00:03:38;96553.63;;;12.31;100.00
19023;BME280;35226;48.606;8.858;2023-05-24T00:06:04;96551.94;;;12.33;100.00
19023;BME280;35226;48.606;8.858;2023-05-24T00:08:34;96545.81;;;12.38;100.00
19023;BME280;35226;48.606;8.858;2023-05-24T00:11:00;96550.84;;;12.31;100.00
19023;BME280;35226;48.606;8.858;2023-05-24T00:13:25;96546.00;;;12.22;100.00
19023;BME280;35226;48.606;8.858;2023-05-24T00:15:51;96553.44;;;12.12;100.00
19023;BME280;35226;48.606;8.858;2023-05-24T00:18:17;96544.56;;;12.17;100.00
19023;BME280;35226;48.606;8.858;2023-05-24T00:20:43;96548.03;;;12.09;100.00
19023;BME280;35226;48.606;8.858;2023-05-24T00:23:09;96550.34;;;12.10;100.00
19023;BME280;35226;48.606;8.858;2023-05-24T00:25:34;96536.16;;;12.08;100.00
19023;BME280;35226;48.606;8.858;2023-05-24T00:28:00;96538.88;;;12.34;100.00
19023;BME280;35226;48.606;8.858;2023-05-24T00:30:26;96534.94;;;12.09;100.00
19023;BME280;35226;48.606;8.858;2023-05-24T00:32:54;96536.28;;;12.05;100.00
19023;BME280;35226;48.606;8.858;2023-05-24T00:35:19;96530.75;;;12.05;100.00
19023;BME280;35226;48.606;8.858;2023-05-24T00:37:45;96536.09;;;11.99;100.00
19023;BME280;35226;48.606;8.858;2023-05-24T00:40:11;96537.22;;;11.89;100.00
19023;BME280;35226;48.606;8.858;2023-05-24T00:42:37;96536.19;;;11.96;100.00
19023;BME280;35226;48.606;8.858;2023-05-24T00:45:03;96534.97;;;11.97;100.00
19023;BME280;35226;48.606;8.858;2023-05-24T00:47:29;96545.28;;;11.96;100.00
19023;BME280;35226;48.606;8.858;2023-05-24T00:49:55;96535.66;;;11.88;100.00
19023;BME280;35226;48.606;8.858;2023-05-24T00:52:20;96529.25;;;11.91;100.00
19023;BME280;35226;48.606;8.858;2023-05-24T00:54:47;96527.94;;;11.83;100.00
19023;BME280;35226;48.606;8.858;2023-05-24T00:57:13;96530.81;;;11.79;100.00
19023;BME280;35226;48.606;8.858;2023-05-24T00:59:39;96530.16;;;11.75;100.00
19023;BME280;35226;48.606;8.858;2023-05-24T01:02:05;96525.28;;;11.79;100.00
19023;BME280;35226;48.606;8.858;2023-05-24T01:04:31;96535.13;;;11.80;100.00
19023;BME280;35226;48.606;8.858;2023-05-24T01:13:25;96539.66;;;11.74;100.00
19023;BME280;35226;48.606;8.858;2023-05-24T01:18:31;96526.50;;;11.78;100.00
19023;BME280;35226;48.606;8.858;2023-05-24T01:24:28;96539.22;;;11.76;100.00
19023;BME280;35226;48.606;8.858;2023-05-24T01:27:05;96533.69;;;11.76;100.00
19023;BME280;35226;48.606;8.858;2023-05-24T01:29:34;96540.66;;;11.68;100.00
19023;BME280;35226;48.606;8.858;2023-05-24T01:32:01;96536.91;;;11.74;100.00
19023;BME280;35226;48.606;8.858;2023-05-24T01:34:27;96533.34;;;11.74;100.00
19023;BME280;35226;48.606;8.858;2023-05-24T01:36:53;96541.88;;;11.67;100.00
19023;BME280;35226;48.606;8.858;2023-05-24T01:39:19;96535.56;;;11.66;100.00
19023;BME280;35226;48.606;8.858;2023-05-24T01:44:31;96536.03;;;11.65;100.00
19023;BME280;35226;48.606;8.858;2023-05-24T01:47:13;96535.25;;;11.64;100.00
19023;BME280;35226;48.606;8.858;2023-05-24T01:49:49;96531.91;;;11.57;100.00
19023;BME280;35226;48.606;8.858;2023-05-24T01:52:18;96532.03;;;11.53;100.00
19023;BME280;35226;48.606;8.858;2023-05-24T01:54:55;96540.78;;;11.52;100.00
19023;BME280;35226;48.606;8.858;2023-05-24T01:57:22;96533.34;;;11.48;100.00
19023;BME280;35226;48.606;8.858;2023-05-24T01:59:49;96528.72;;;11.45;100.00
19023;BME280;35226;48.606;8.858;2023-05-24T02:02:17;96535.00;;;11.46;100.00
19023;BME280;35226;48.606;8.858;2023-05-24T02:04:43;96530.59;;;11.48;100.00
19023;BME280;35226;48.606;8.858;2023-05-24T02:07:08;96533.03;;;11.34;100.00
19023;BME280;35226;48.606;8.858;2023-05-24T02:09:36;96521.22;;;11.33;100.00
19023;BME280;35226;48.606;8.858;2023-05-24T02:12:02;96524.94;;;11.27;100.00
19023;BME280;35226;48.606;8.858;2023-05-24T02:14:27;96520.19;;;11.27;100.00
19023;BME280;35226;48.606;8.858;2023-05-24T02:16:53;96526.94;;;11.26;100.00
19023;BME280;35226;48.606;8.858;2023-05-24T02:19:23;96525.63;;;11.31;100.00
19023;BME280;35226;48.606;8.858;2023-05-24T02:21:49;96531.59;;;11.29;100.00
19023;BME280;35226;48.606;8.858;2023-05-24T02:24:16;96537.13;;;11.29;100.00
19023;BME280;35226;48.606;8.858;2023-05-24T02:26:43;96538.22;;;11.19;100.00
19023;BME280;35226;48.606;8.858;2023-05-24T02:29:08;96532.69;;;11.19;100.00
19023;BME280;35226;48.606;8.858;2023-05-24T02:31:34;96532.25;;;11.21;100.00
19023;BME280;35226;48.606;8.858;2023-05-24T02:33:59;96529.94;;;11.19;100.00
19023;BME280;35226;48.606;8.858;2023-05-24T02:36:25;96536.69;;;11.18;100.00
19023;BME280;35226;48.606;8.858;2023-05-24T02:38:52;96537.47;;;11.06;100.00
19023;BME280;35226;48.606;8.858;2023-05-24T02:41:18;96544.06;;;11.08;100.00
19023;BME280;35226;48.606;8.858;2023-05-24T02:43:45;96542.75;;;11.00;100.00
19023;BME280;35226;48.606;8.858;2023-05-24T02:46:11;96538.66;;;11.05;100.00
19023;BME280;35226;48.606;8.858;2023-05-24T02:48:37;96540.53;;;11.08;100.00
19023;BME280;35226;48.606;8.858;2023-05-24T02:51:05;96544.19;;;11.05;100.00
19023;BME280;35226;48.606;8.858;2023-05-24T02:53:31;96538.97;;;11.07;100.00
19023;BME280;35226;48.606;8.858;2023-05-24T02:55:58;96536.22;;;11.07;100.00
19023;BME280;35226;48.606;8.858;2023-05-24T02:58:24;96541.44;;;11.05;100.00
19023;BME280;35226;48.606;8.858;2023-05-24T03:00:50;96539.84;;;10.91;100.00
19023;BME280;35226;48.606;8.858;2023-05-24T03:03:18;96542.84;;;10.97;100.00
19023;BME280;35226;48.606;8.858;2023-05-24T03:05:44;96538.66;;;10.92;100.00
19023;BME280;35226;48.606;8.858;2023-05-24T03:08:11;96536.75;;;10.89;100.00
19023;BME280;35226;48.606;8.858;2023-05-24T03:10:37;96534.88;;;10.86;100.00
19023;BME280;35226;48.606;8.858;2023-05-24T03:13:05;96534.31;;;10.91;100.00
19023;BME280;35226;48.606;8.858;2023-05-24T03:15:31;96530.66;;;10.82;100.00
19023;BME280;35226;48.606;8.858;2023-05-24T03:17:59;96531.34;;;10.86;100.00
19023;BME280;35226;48.606;8.858;2023-05-24T03:20:25;96526.09;;;10.62;100.00
19023;BME280;35226;48.606;8.858;2023-05-24T03:22:52;96531.28;;;10.60;100.00
19023;BME280;35226;48.606;8.858;2023-05-24T03:25:17;96523.66;;;10.64;100.00
19023;BME280;35226;48.606;8.858;2023-05-24T03:27:43;96526.63;;;10.57;100.00
19023;BME280;35226;48.606;8.858;2023-05-24T03:30:09;96525.75;;;10.60;100.00
19023;BME280;35226;48.606;8.858;2023-05-24T03:32:43;96529.06;;;10.55;100.00
19023;BME280;35226;48.606;8.858;2023-05-24T03:35:09;96527.59;;;10.51;100.00
19023;BME280;35226;48.606;8.858;2023-05-24T03:37:37;96530.47;;;10.47;100.00
19023;BME280;35226;48.606;8.858;2023-05-24T03:40:03;96540.19;;;10.52;100.00
19023;BME280;35226;48.606;8.858;2023-05-24T03:42:48;96540.53;;;10.54;100.00
19023;BME280;35226;48.606;8.858;2023-05-24T03:45:13;96544.09;;;10.54;100.00
19023;BME280;35226;48.606;8.858;2023-05-24T03:47:39;96545.19;;;10.57;100.00
19023;BME280;35226;48.606;8.858;2023-05-24T03:50:05;96551.16;;;10.55;100.00
19023;BME280;35226;48.606;8.858;2023-05-24T03:52:31;96546.94;;;10.51;100.00
19023;BME280;35226;48.606;8.858;2023-05-24T03:54:56;96542.53;;;10.53;100.00
19023;BME280;35226;48.606;8.858;2023-05-24T03:57:21;96549.25;;;10.52;100.00
19023;BME280;35226;48.606;8.858;2023-05-24T03:59:47;96549.25;;;10.52;100.00
19023;BME280;35226;48.606;8.858;2023-05-24T04:02:13;96548.13;;;10.50;100.00
19023;BME280;35226;48.606;8.858;2023-05-24T04:04:38;96550.81;;;10.53;100.00
19023;BME280;35226;48.606;8.858;2023-05-24T04:07:04;96548.91;;;10.50;100.00
19023;BME280;35226;48.606;8.858;2023-05-24T04:09:29;96545.72;;;10.52;100.00
19023;BME280;35226;48.606;8.858;2023-05-24T04:11:55;96530.69;;;10.53;100.00
19023;BME280;35226;48.606;8.858;2023-05-24T04:14:21;96538.56;;;10.54;100.00
19023;BME280;35226;48.606;8.858;2023-05-24T04:16:46;96540.44;;;10.57;100.00
19023;BME280;35226;48.606;8.858;2023-05-24T04:19:12;96542.53;;;10.53;100.00
19023;BME280;35226;48.606;8.858;2023-05-24T04:21:38;96541.41;;;10.51;100.00
19023;BME280;35226;48.606;8.858;2023-05-24T04:24:04;96546.34;;;10.43;100.00
19023;BME280;35226;48.606;8.858;2023-05-24T04:26:31;96546.78;;;10.42;100.00
19023;BME280;35226;48.606;8.858;2023-05-24T04:28:58;96534.75;;;10.48;100.00
19023;BME280;35226;48.606;8.858;2023-05-24T04:31:24;96532.34;;;10.50;100.00
19023;BME280;35226;48.606;8.858;2023-05-24T04:33:50;96530.00;;;10.49;100.00
19023;BME280;35226;48.606;8.858;2023-05-24T04:36:17;96545.34;;;10.37;100.00
19023;BME280;35226;48.606;8.858;2023-05-24T04:38:43;96534.97;;;10.41;100.00
19023;BME280;35226;48.606;8.858;2023-05-24T04:41:13;96544.72;;;10.46;100.00
19023;BME280;35226;48.606;8.858;2023-05-24T04:43:39;96547.13;;;10.44;100.00
19023;BME280;35226;48.606;8.858;2023-05-24T04:46:04;96546.69;;;10.45;100.00
19023;BME280;35226;48.606;8.858;2023-05-24T04:48:30;96544.50;;;10.53;100.00
19023;BME280;35226;48.606;8.858;2023-05-24T04:50:56;96554.00;;;10.52;100.00
19023;BME280;35226;48.606;8.858;2023-05-24T04:53:23;96553.22;;;10.51;100.00
19023;BME280;35226;48.606;8.858;2023-05-24T04:55:52;96557.31;;;10.47;100.00
19023;BME280;35226;48.606;8.858;2023-05-24T04:58:18;96552.56;;;10.47;100.00
19023;BME280;35226;48.606;8.858;2023-05-24T05:00:43;96560.84;;;10.47;100.00
19023;BME280;35226;48.606;8.858;2023-05-24T05:03:09;96561.56;;;10.35;100.00
19023;BME280;35226;48.606;8.858;2023-05-24T05:05:35;96567.53;;;10.33;100.00
19023;BME280;35226;48.606;8.858;2023-05-24T05:08:01;96568.81;;;10.29;100.00
19023;BME280;35226;48.606;8.858;2023-05-24T05:10:28;96566.41;;;10.31;100.00
19023;BME280;35226;48.606;8.858;2023-05-24T05:12:54;96567.53;;;10.33;100.00
19023;BME280;35226;48.606;8.858;2023-05-24T05:15:22;96572.19;;;10.36;100.00
19023;BME280;35226;48.606;8.858;2023-05-24T05:17:48;96576.59;;;10.34;100.00
19023;BME280;35226;48.606;8.858;2023-05-24T05:20:13;96570.28;;;10.33;100.00
19023;BME280;35226;48.606;8.858;2023-05-24T05:22:44;96572.19;;;10.36;100.00
19023;BME280;35226;48.606;8.858;2023-05-24T05:25:10;96567.53;;;10.33;100.00
19023;BME280;35226;48.606;8.858;2023-05-24T05:27:35;96567.53;;;10.33;100.00
19023;BME280;35226;48.606;8.858;2023-05-24T05:30:01;96566.16;;;10.25;100.00
19023;BME280;35226;48.606;8.858;2023-05-24T05:32:26;96569.16;;;10.31;100.00
19023;BME280;35226;48.606;8.858;2023-05-24T05:34:52;96569.66;;;10.42;100.00
19023;BME280;35226;48.606;8.858;2023-05-24T05:37:17;96562.69;;;10.37;100.00
19023;BME280;35226;48.606;8.858;2023-05-24T05:39:43;96564.75;;;10.33;100.00
19023;BME280;35226;48.606;8.858;2023-05-24T05:42:08;96567.88;;;10.35;100.00
19023;BME280;35226;48.606;8.858;2023-05-24T05:44:34;96564.41;;;10.31;100.00
19023;BME280;35226;48.606;8.858;2023-05-24T05:46:59;96572.72;;;10.31;100.00
19023;BME280;35226;48.606;8.858;2023-05-24T05:49:25;96574.41;;;10.42;100.00
19023;BME280;35226;48.606;8.858;2023-05-24T05:51:50;96578.16;;;10.35;100.00
19023;BME280;35226;48.606;8.858;2023-05-24T05:54:17;96567.69;;;10.43;100.00
19023;BME280;35226;48.606;8.858;2023-05-24T05:56:44;96574.66;;;10.47;100.00
19023;BME280;35226;48.606;8.858;2023-05-24T05:59:11;96573.63;;;10.41;100.00
19023;BME280;35226;48.606;8.858;2023-05-24T06:01:37;96577.72;;;10.36;100.00
19023;BME280;35226;48.606;8.858;2023-05-24T06:04:03;96573.53;;;10.45;100.00
19023;BME280;35226;48.606;8.858;2023-05-24T06:06:28;96573.53;;;10.45;100.00
19023;BME280;35226;48.606;8.858;2023-05-24T06:08:54;96575.53;;;10.44;100.00
19023;BME280;35226;48.606;8.858;2023-05-24T06:11:19;96571.84;;;10.34;100.00
19023;BME280;35226;48.606;8.858;2023-05-24T06:13:45;96572.72;;;10.31;100.00
19023;BME280;35226;48.606;8.858;2023-05-24T06:16:10;96571.84;;;10.34;100.00
19023;BME280;35226;48.606;8.858;2023-05-24T06:18:36;96564.69;;;10.37;100.00
19023;BME280;35226;48.606;8.858;2023-05-24T06:21:02;96561.72;;;10.44;100.00
19023;BME280;35226;48.606;8.858;2023-05-24T06:23:27;96564.56;;;10.41;100.00
19023;BME280;35226;48.606;8.858;2023-05-24T06:25:53;96564.13;;;10.42;100.00
19023;BME280;35226;48.606;8.858;2023-05-24T06:28:18;96577.66;;;10.53;100.00
19023;BME280;35226;48.606;8.858;2023-05-24T06:30:45;96562.56;;;10.57;100.00
19023;BME280;35226;48.606;8.858;2023-05-24T06:33:11;96570.25;;;10.50;100.00
19023;BME280;35226;48.606;8.858;2023-05-24T06:35:37;96567.59;;;10.46;100.00
19023;BME280;35226;48.606;8.858;2023-05-24T06:38:02;96573.69;;;10.54;100.00
19023;BME280;35226;48.606;8.858;2023-05-24T06:40:31;96580.56;;;10.62;100.00
19023;BME280;35226;48.606;8.858;2023-05-24T06:42:56;96577.38;;;10.63;100.00
19023;BME280;35226;48.606;8.858;2023-05-24T06:45:23;96581.34;;;10.62;100.00
19023;BME280;35226;48.606;8.858;2023-05-24T06:47:48;96594.81;;;10.60;100.00
19023;BME280;35226;48.606;8.858;2023-05-24T06:50:14;96586.31;;;10.67;100.00
19023;BME280;35226;48.606;8.858;2023-05-24T06:52:39;96584.59;;;10.73;100.00
19023;BME280;35226;48.606;8.858;2023-05-24T06:55:05;96583.59;;;10.80;100.00
19023;BME280;35226;48.606;8.858;2023-05-24T06:57:31;96587.34;;;10.73;100.00
19023;BME280;35226;48.606;8.858;2023-05-24T06:59:56;96584.59;;;10.73;100.00
19023;BME280;35226;48.606;8.858;2023-05-24T07:02:22;96590.47;;;10.75;100.00
19023;BME280;35226;48.606;8.858;2023-05-24T07:04:52;96587.09;;;10.68;100.00
19023;BME280;35226;48.606;8.858;2023-05-24T07:07:19;96589.56;;;10.79;100.00
19023;BME280;35226;48.606;8.858;2023-05-24T07:09:45;96587.94;;;10.81;100.00
19023;BME280;35226;48.606;8.858;2023-05-24T07:12:11;96589.47;;;10.82;100.00
19023;BME280;35226;48.606;8.858;2023-05-24T07:14:37;96598.13;;;10.84;100.00
19023;BME280;35226;48.606;8.858;2023-05-24T07:17:03;96603.34;;;10.95;100.00
19023;BME280;35226;48.606;8.858;2023-05-24T07:19:28;96603.78;;;10.93;100.00
19023;BME280;35226;48.606;8.858;2023-05-24T07:21:55;96605.31;;;10.94;100.00
19023;BME280;35226;48.606;8.858;2023-05-24T07:24:21;96610.03;;;10.81;100.00
19023;BME280;35226;48.606;8.858;2023-05-24T07:26:47;96610.47;;;10.80;100.00
19023;BME280;35226;48.606;8.858;2023-05-24T07:29:13;96608.75;;;10.86;100.00
19023;BME280;35226;48.606;8.858;2023-05-24T07:31:38;96614.34;;;10.82;100.00
19023;BME280;35226;48.606;8.858;2023-05-24T07:34:04;96621.44;;;10.83;100.00
19023;BME280;35226;48.606;8.858;2023-05-24T07:36:29;96625.75;;;10.84;100.00
19023;BME280;35226;48.606;8.858;2023-05-24T07:38:57;96619.69;;;10.89;100.00
19023;BME280;35226;48.606;8.858;2023-05-24T07:41:26;96634.03;;;10.84;100.00
19023;BME280;35226;48.606;8.858;2023-05-24T07:43:54;96626.97;;;10.83;100.00
19023;BME280;35226;48.606;8.858;2023-05-24T07:46:38;96630.09;;;10.98;100.00
19023;BME280;35226;48.606;8.858;2023-05-24T07:49:05;96636.38;;;10.86;100.00
19023;BME280;35226;48.606;8.858;2023-05-24T07:51:31;96636.59;;;10.91;100.00
19023;BME280;35226;48.606;8.858;2023-05-24T08:02:00;96642.91;;;10.92;100.00
19023;BME280;35226;48.606;8.858;2023-05-24T08:04:30;96639.03;;;10.89;100.00
19023;BME280;35226;48.606;8.858;2023-05-24T08:06:56;96636.41;;;10.98;100.00
19023;BME280;35226;48.606;8.858;2023-05-24T08:09:22;96643.59;;;10.96;100.00
19023;BME280;35226;48.606;8.858;2023-05-24T08:11:48;96646.94;;;11.03;100.00
19023;BME280;35226;48.606;8.858;2023-05-24T08:14:13;96648.84;;;11.06;100.00
19023;BME280;35226;48.606;8.858;2023-05-24T08:16:39;96645.59;;;11.08;100.00
19023;BME280;35226;48.606;8.858;2023-05-24T08:19:04;96640.97;;;11.05;100.00
19023;BME280;35226;48.606;8.858;2023-05-24T08:21:31;96649.94;;;11.09;100.00
19023;BME280;35226;48.606;8.858;2023-05-24T08:24:01;96649.53;;;11.23;100.00
19023;BME280;35226;48.606;8.858;2023-05-24T08:26:26;96653.84;;;11.24;100.00
19023;BME280;35226;48.606;8.858;2023-05-24T08:28:52;96651.19;;;11.21;100.00
19023;BME280;35226;48.606;8.858;2023-05-24T08:31:17;96645.25;;;11.35;100.00
19023;BME280;35226;48.606;8.858;2023-05-24T08:33:43;96651.44;;;11.39;100.00
19023;BME280;35226;48.606;8.858;2023-05-24T08:36:09;96649.34;;;11.43;100.00
19023;BME280;35226;48.606;8.858;2023-05-24T08:38:34;96658.09;;;11.54;100.00
19023;BME280;35226;48.606;8.858;2023-05-24T08:41:04;96656.91;;;11.55;100.00
19023;BME280;35226;48.606;8.858;2023-05-24T08:43:32;96659.78;;;11.77;100.00
19023;BME280;35226;48.606;8.858;2023-05-24T08:45:57;96649.84;;;11.79;100.00
19023;BME280;35226;48.606;8.858;2023-05-24T08:48:24;96660.03;;;11.82;100.00
19023;BME280;35226;48.606;8.858;2023-05-24T08:50:50;96651.84;;;11.92;100.00
19023;BME280;35226;48.606;8.858;2023-05-24T08:53:17;96661.47;;;11.87;100.00
19023;BME280;35226;48.606;8.858;2023-05-24T08:55:43;96655.28;;;11.83;100.00
19023;BME280;35226;48.606;8.858;2023-05-24T08:58:10;96653.59;;;11.98;100.00
19023;BME280;35226;48.606;8.858;2023-05-24T09:00:35;96657.16;;;11.99;100.00
19023;BME280;35226;48.606;8.858;2023-05-24T09:03:01;96661.25;;;11.94;100.00
19023;BME280;35226;48.606;8.858;2023-05-24T09:05:29;96661.13;;;11.98;100.00
19023;BME280;35226;48.606;8.858;2023-05-24T09:07:55;96661.66;;;12.05;100.00
19023;BME280;35226;48.606;8.858;2023-05-24T09:10:23;96665.34;;;11.90;100.00
19023;BME280;35226;48.606;8.858;2023-05-24T09:12:57;96664.44;;;12.05;100.00
19023;BME280;35226;48.606;8.858;2023-05-24T09:15:23;96662.44;;;12.06;100.00
19023;BME280;35226;48.606;8.858;2023-05-24T09:17:48;96663.03;;;12.13;100.00
19023;BME280;35226;48.606;8.858;2023-05-24T09:20:14;96661.47;;;12.00;100.00
19023;BME280;35226;48.606;8.858;2023-05-24T09:22:41;96652.97;;;11.94;100.00
19023;BME280;35226;48.606;8.858;2023-05-24T09:25:12;96662.09;;;12.16;100.00
19023;BME280;35226;48.606;8.858;2023-05-24T09:27:38;96660.41;;;12.44;100.00
19023;BME280;35226;48.606;8.858;2023-05-24T09:30:10;96651.22;;;12.35;100.00
19023;BME280;35226;48.606;8.858;2023-05-24T09:32:36;96655.75;;;12.41;100.00
19023;BME280;35226;48.606;8.858;2023-05-24T09:35:08;96654.97;;;12.53;100.00
19023;BME280;35226;48.606;8.858;2023-05-24T09:37:35;96656.09;;;12.43;100.00
19023;BME280;35226;48.606;8.858;2023-05-24T09:40:03;96654.22;;;12.28;100.00
19023;BME280;35226;48.606;8.858;2023-05-24T09:42:31;96649.44;;;12.41;100.00
19023;BME280;35226;48.606;8.858;2023-05-24T09:45:04;96646.22;;;12.42;100.00
19023;BME280;35226;48.606;8.858;2023-05-24T09:47:34;96652.66;;;12.39;100.00
19023;BME280;35226;48.606;8.858;2023-05-24T09:50:01;96654.63;;;12.51;100.00
19023;BME280;35226;48.606;8.858;2023-05-24T09:52:27;96655.75;;;12.41;100.00
19023;BME280;35226;48.606;8.858;2023-05-24T09:54:53;96654.81;;;12.22;100.00
19023;BME280;35226;48.606;8.858;2023-05-24T09:57:19;96657.44;;;12.26;100.00
19023;BME280;35226;48.606;8.858;2023-05-24T09:59:48;96654.66;;;12.26;100.00
19023;BME280;35226;48.606;8.858;2023-05-24T10:02:14;96661.13;;;12.23;100.00
19023;BME280;35226;48.606;8.858;2023-05-24T10:04:42;96656.91;;;12.31;100.00
19023;BME280;35226;48.606;8.858;2023-05-24T10:07:09;96664.41;;;12.43;100.00
19023;BME280;35226;48.606;8.858;2023-05-24T10:09:36;96660.31;;;12.35;100.00
19023;BME280;35226;48.606;8.858;2023-05-24T10:12:03;96666.22;;;12.12;100.00
19023;BME280;35226;48.606;8.858;2023-05-24T10:14:36;96666.78;;;11.94;100.00
19023;BME280;35226;48.606;8.858;2023-05-24T10:17:06;96667.00;;;12.00;100.00
19023;BME280;35226;48.606;8.858;2023-05-24T10:19:32;96663.91;;;12.23;100.00
19023;BME280;35226;48.606;8.858;2023-05-24T10:21:59;96663.22;;;12.19;100.00
19023;BME280;35226;48.606;8.858;2023-05-24T10:24:26;96662.56;;;12.15;100.00
19023;BME280;35226;48.606;8.858;2023-05-24T10:26:54;96654.47;;;12.20;100.00
19023;BME280;35226;48.606;8.858;2023-05-24T10:29:35;96662.97;;;12.26;100.00
19023;BME280;35226;48.606;8.858;2023-05-24T10:32:06;96659.44;;;12.26;100.00
19023;BME280;35226;48.606;8.858;2023-05-24T10:34:33;96663.91;;;12.10;100.00
19023;BME280;35226;48.606;8.858;2023-05-24T10:37:00;96667.44;;;12.11;100.00
19023;BME280;35226;48.606;8.858;2023-05-24T10:39:27;96665.44;;;12.11;100.00
19023;BME280;35226;48.606;8.858;2023-05-24T10:41:55;96660.25;;;12.13;100.00
19023;BME280;35226;48.606;8.858;2023-05-24T10:44:21;96651.13;;;12.26;100.00
19023;BME280;35226;48.606;8.858;2023-05-24T10:47:13;96655.97;;;12.34;100.00
19023;BME280;35226;48.606;8.858;2023-05-24T10:49:48;96653.16;;;12.12;100.00
19023;BME280;35226;48.606;8.858;2023-05-24T10:52:16;96666.00;;;12.06;100.00
19023;BME280;35226;48.606;8.858;2023-05-24T10:57:26;96658.81;;;12.09;100.00
19023;BME280;35226;48.606;8.858;2023-05-24T10:59:55;96659.47;;;12.00;100.00
19023;BME280;35226;48.606;8.858;2023-05-24T11:02:21;96663.78;;;12.01;100.00
19023;BME280;35226;48.606;8.858;2023-05-24T11:04:47;96664.44;;;12.05;100.00
19023;BME280;35226;48.606;8.858;2023-05-24T11:07:14;96655.25;;;12.08;100.00
19023;BME280;35226;48.606;8.858;2023-05-24T11:09:41;96665.03;;;11.75;100.00
19023;BME280;35226;48.606;8.858;2023-05-24T11:12:21;96664.47;;;11.80;100.00
19023;BME280;35226;48.606;8.858;2023-05-24T11:14:49;96656.84;;;11.84;100.00
19023;BME280;35226;48.606;8.858;2023-05-24T11:17:15;96662.03;;;11.82;100.00
19023;BME280;35226;48.606;8.858;2023-05-24T11:19:54;96660.16;;;11.92;100.00
19023;BME280;35226;48.606;8.858;2023-05-24T11:22:22;96653.28;;;11.83;100.00
19023;BME280;35226;48.606;8.858;2023-05-24T11:24:48;96656.59;;;11.91;100.00
19023;BME280;35226;48.606;8.858;2023-05-24T11:27:14;96652.97;;;11.94;100.00
19023;BME280;35226;48.606;8.858;2023-05-24T11:29:44;96652.81;;;11.98;100.00
19023;BME280;35226;48.606;8.858;2023-05-24T11:32:14;96648.94;;;11.95;100.00
19023;BME280;35226;48.606;8.858;2023-05-24T11:34:40;96647.84;;;11.80;100.00
19023;BME280;35226;48.606;8.858;2023-05-24T11:37:09;96641.88;;;11.94;100.00
19023;BME280;35226;48.606;8.858;2023-05-24T11:39:36;96641.66;;;11.89;100.00
19023;BME280;35226;48.606;8.858;2023-05-24T11:42:06;96642.84;;;11.88;100.00
19023;BME280;35226;48.606;8.858;2023-05-24T11:44:33;96643.88;;;11.94;100.00
19023;BME280;35226;48.606;8.858;2023-05-24T11:47:04;96636.66;;;12.09;100.00
19023;BME280;35226;48.606;8.858;2023-05-24T11:49:29;96631.00;;;12.00;100.00
19023;BME280;35226;48.606;8.858;2023-05-24T11:51:57;96636.72;;;12.31;100.00
19023;BME280;35226;48.606;8.858;2023-05-24T11:54:23;96638.28;;;12.32;100.00
19023;BME280;35226;48.606;8.858;2023-05-24T11:56:51;96637.91;;;12.42;100.00
19023;BME280;35226;48.606;8.858;2023-05-24T11:59:22;96628.13;;;12.85;100.00
19023;BME280;35226;48.606;8.858;2023-05-24T12:01:47;96626.19;;;12.94;100.00
19023;BME280;35226;48.606;8.858;2023-05-24T12:04:14;96628.28;;;13.25;100.00
19023;BME280;35226;48.606;8.858;2023-05-24T12:06:43;96628.16;;;13.28;100.00
19023;BME280;35226;48.606;8.858;2023-05-24T12:09:11;96621.16;;;13.46;100.00
19023;BME280;35226;48.606;8.858;2023-05-24T12:11:40;96620.84;;;13.84;100.00
19023;BME280;35226;48.606;8.858;2023-05-24T12:14:10;96615.13;;;14.18;100.00
19023;BME280;35226;48.606;8.858;2023-05-24T12:16:36;96619.94;;;14.36;100.00
19023;BME280;35226;48.606;8.858;2023-05-24T12:19:02;96605.31;;;14.81;100.00
19023;BME280;35226;48.606;8.858;2023-05-24T12:21:31;96609.03;;;14.96;100.00
19023;BME280;35226;48.606;8.858;2023-05-24T12:24:07;96611.50;;;14.94;100.00
19023;BME280;35226;48.606;8.858;2023-05-24T12:26:36;96610.69;;;15.12;95.21
19023;BME280;35226;48.606;8.858;2023-05-24T12:29:02;96599.59;;;15.72;88.00
19023;BME280;35226;48.606;8.858;2023-05-24T12:31:27;96610.97;;;15.93;88.76
19023;BME280;35226;48.606;8.858;2023-05-24T12:33:53;96602.66;;;15.83;83.27
19023;BME280;35226;48.606;8.858;2023-05-24T12:36:19;96592.44;;;16.13;86.86
19023;BME280;35226;48.606;8.858;2023-05-24T12:38:44;96595.13;;;16.32;83.79
19023;BME280;35226;48.606;8.858;2023-05-24T12:41:10;96584.00;;;16.46;76.84
19023;BME280;35226;48.606;8.858;2023-05-24T12:43:41;96591.06;;;16.80;77.27
19023;BME280;35226;48.606;8.858;2023-05-24T12:46:08;96583.88;;;16.88;71.61
19023;BME280;35226;48.606;8.858;2023-05-24T12:48:34;96590.44;;;17.00;74.66
19023;BME280;35226;48.606;8.858;2023-05-24T12:50:59;96586.53;;;17.21;75.29
19023;BME280;35226;48.606;8.858;2023-05-24T12:53:26;96571.56;;;16.95;62.10
19023;BME280;35226;48.606;8.858;2023-05-24T12:55:52;96578.72;;;17.40;73.05
19023;BME280;35226;48.606;8.858;2023-05-24T12:58:20;96571.00;;;17.64;68.49
19023;BME280;35226;48.606;8.858;2023-05-24T13:00:46;96573.22;;;17.60;67.17
19023;BME280;35226;48.606;8.858;2023-05-24T13:03:14;96569.75;;;17.65;63.62
19023;BME280;35226;48.606;8.858;2023-05-24T13:05:40;96576.19;;;17.86;61.28
19023;BME280;35226;48.606;8.858;2023-05-24T13:08:05;96574.13;;;18.01;58.32
19023;BME280;35226;48.606;8.858;2023-05-24T13:10:31;96566.84;;;17.89;54.10
19023;BME280;35226;48.606;8.858;2023-05-24T13:12:57;96569.19;;;18.31;57.35
19023;BME280;35226;48.606;8.858;2023-05-24T13:15:22;96570.19;;;18.28;53.67